createdAt,value
2022-12-03T00:01:56.453Z,1
2022-12-03T00:03:53.121Z,1
2022-12-03T00:05:53.400Z,1
2022-12-03T00:09:53.470Z,1
2022-12-03T00:13:52.430Z,1
2022-12-03T00:15:53.113Z,1
2022-12-03T00:17:52.965Z,1
2022-12-03T00:19:53.062Z,1
2022-12-03T00:21:55.541Z,1
2022-12-03T00:23:52.571Z,1
2022-12-03T00:25:56.312Z,1
2022-12-03T00:27:52.387Z,1
2022-12-03T00:29:53.119Z,1
2022-12-03T00:31:53.436Z,1
2022-12-03T00:33:56.274Z,1
2022-12-03T00:35:56.552Z,1
2022-12-03T00:37:53.136Z,1
2022-12-03T00:39:53.261Z,1
2022-12-03T00:41:53.126Z,1
2022-12-03T00:43:52.549Z,1
2022-12-03T00:45:53.290Z,1
2022-12-03T00:47:52.404Z,1
2022-12-03T00:49:53.325Z,1
2022-12-03T00:51:52.899Z,1
2022-12-03T00:53:52.420Z,1
2022-12-03T00:55:56.552Z,1
2022-12-03T00:57:52.535Z,1
2022-12-03T00:59:53.186Z,1
2022-12-03T01:01:53.278Z,1
2022-12-03T01:03:59.602Z,1
2022-12-03T01:05:53.451Z,1
2022-12-03T01:07:59.802Z,1
2022-12-03T01:09:53.226Z,1
2022-12-03T01:11:52.819Z,1
2022-12-03T01:13:53.032Z,1
2022-12-03T01:15:53.027Z,1
2022-12-03T01:17:52.713Z,1
2022-12-03T01:19:53.294Z,1
2022-12-03T01:21:52.686Z,1
2022-12-03T01:23:53.365Z,1
2022-12-03T01:25:53.468Z,1
2022-12-03T01:27:53.284Z,1
2022-12-03T01:29:52.314Z,1
2022-12-03T01:31:53.513Z,1
2022-12-03T01:35:53.025Z,1
2022-12-03T01:37:52.658Z,1
2022-12-03T01:39:53.145Z,1
2022-12-03T01:41:56.088Z,1
2022-12-03T01:43:53.321Z,1
2022-12-03T01:45:56.244Z,1
2022-12-03T01:47:52.650Z,1
2022-12-03T01:49:52.491Z,1
2022-12-03T01:51:52.480Z,1
2022-12-03T01:53:52.679Z,1
2022-12-03T01:55:53.073Z,1
2022-12-03T01:57:59.459Z,1
2022-12-03T01:59:52.535Z,1
2022-12-03T02:01:53.190Z,1
2022-12-03T02:03:53.178Z,1
2022-12-03T02:05:56.196Z,1
2022-12-03T02:07:56.622Z,1
2022-12-03T02:09:56.446Z,1
2022-12-03T02:11:53.249Z,1
2022-12-03T02:13:59.573Z,1
2022-12-03T02:15:53.127Z,1
2022-12-03T02:17:52.440Z,1
2022-12-03T02:19:52.591Z,1
2022-12-03T02:21:53.157Z,1
2022-12-03T02:23:55.633Z,1
2022-12-03T02:25:56.296Z,1
2022-12-03T02:27:53.205Z,1
2022-12-03T02:29:52.445Z,1
2022-12-03T02:31:59.808Z,1
2022-12-03T02:33:52.915Z,1
2022-12-03T02:35:53.307Z,1
2022-12-03T02:37:53.329Z,1
2022-12-03T02:39:52.803Z,1
2022-12-03T02:41:56.500Z,1
2022-12-03T02:43:52.521Z,1
2022-12-03T02:45:52.648Z,1
2022-12-03T02:49:52.959Z,1
2022-12-03T02:51:52.453Z,1
2022-12-03T02:53:52.622Z,1
2022-12-03T02:55:53.124Z,1
2022-12-03T02:57:56.469Z,1
2022-12-03T02:59:53.066Z,1
2022-12-03T03:01:56.498Z,1
2022-12-03T03:03:52.344Z,1
2022-12-03T03:05:59.490Z,1
2022-12-03T03:07:52.584Z,1
2022-12-03T03:09:52.895Z,1
2022-12-03T03:11:52.418Z,1
2022-12-03T03:13:53.145Z,1
2022-12-03T03:16:00.055Z,1
2022-12-03T03:17:52.986Z,1
2022-12-03T03:19:59.841Z,1
2022-12-03T03:21:53.128Z,1
2022-12-03T03:23:52.861Z,1
2022-12-03T03:25:56.361Z,1
2022-12-03T03:27:53.305Z,1
2022-12-03T03:29:53.158Z,1
2022-12-03T03:31:52.948Z,1
2022-12-03T03:33:59.542Z,1
2022-12-03T03:35:59.512Z,1
2022-12-03T03:37:56.492Z,1
2022-12-03T03:39:52.888Z,1
2022-12-03T03:41:53.347Z,1
2022-12-03T03:43:59.631Z,1
2022-12-03T03:45:53.107Z,1
2022-12-03T03:47:56.303Z,1
2022-12-03T03:49:53.226Z,1
2022-12-03T03:51:53.192Z,1
2022-12-03T03:53:53.177Z,1
2022-12-03T03:55:53.053Z,1
2022-12-03T03:57:59.571Z,1
2022-12-03T03:59:53.434Z,1
2022-12-03T04:01:52.683Z,1
2022-12-03T04:03:53.071Z,1
2022-12-03T04:05:56.396Z,1
2022-12-03T04:07:56.501Z,1
2022-12-03T04:09:52.556Z,1
2022-12-03T04:11:59.618Z,1
2022-12-03T04:13:55.976Z,1
2022-12-03T04:17:52.568Z,1
2022-12-03T04:19:53.124Z,1
2022-12-03T04:21:56.463Z,1
2022-12-03T04:23:53.359Z,1
2022-12-03T04:25:56.523Z,1
2022-12-03T04:27:53.146Z,1
2022-12-03T04:29:52.438Z,1
2022-12-03T04:33:56.179Z,1
2022-12-03T04:37:53.089Z,1
2022-12-03T04:39:53.400Z,1
2022-12-03T04:41:56.185Z,1
2022-12-03T04:43:52.860Z,1
2022-12-03T04:45:53.376Z,1
2022-12-03T04:47:53.185Z,1
2022-12-03T04:49:56.468Z,1
2022-12-03T04:51:52.440Z,1
2022-12-03T04:55:52.515Z,1
2022-12-03T04:57:52.498Z,1
2022-12-03T04:59:53.122Z,1
2022-12-03T05:01:56.268Z,1
2022-12-03T05:03:52.515Z,1
2022-12-03T05:05:56.452Z,1
2022-12-03T05:07:53.117Z,1
2022-12-03T05:09:52.476Z,1
2022-12-03T05:11:53.060Z,1
2022-12-03T05:13:52.971Z,1
2022-12-03T05:15:52.628Z,1
2022-12-03T05:17:56.434Z,1
2022-12-03T05:19:53.036Z,1
2022-12-03T05:21:52.672Z,1
2022-12-03T05:23:52.950Z,1
2022-12-03T05:25:56.585Z,1
2022-12-03T05:27:53.442Z,1
2022-12-03T05:29:53.392Z,1
2022-12-03T05:31:53.051Z,1
2022-12-03T05:33:53.286Z,1
2022-12-03T05:35:52.718Z,1
2022-12-03T05:37:53.450Z,1
2022-12-03T05:39:55.427Z,1
2022-12-03T05:41:56.605Z,1
2022-12-03T05:43:53.480Z,1
2022-12-03T05:45:52.493Z,1
2022-12-03T05:47:52.591Z,1
2022-12-03T05:49:53.219Z,1
2022-12-03T05:51:55.169Z,1
2022-12-03T05:53:53.175Z,1
2022-12-03T05:55:53.231Z,1
2022-12-03T05:57:52.798Z,1
2022-12-03T05:59:53.275Z,1
2022-12-03T06:01:52.657Z,1
2022-12-03T06:03:52.817Z,1
2022-12-03T06:05:53.481Z,1
2022-12-03T06:07:52.594Z,0
2022-12-03T06:09:52.567Z,0
2022-12-03T06:11:54.152Z,0
2022-12-03T06:13:52.383Z,0
2022-12-03T06:15:52.902Z,0.1
2022-12-03T06:17:52.649Z,0.1
2022-12-03T06:19:53.412Z,0.2
2022-12-03T06:21:53.008Z,0.3
2022-12-03T06:23:53.098Z,0.3
2022-12-03T06:25:53.513Z,0.5
2022-12-03T06:27:59.719Z,0.7
2022-12-03T06:29:56.358Z,1.1
2022-12-03T06:31:52.442Z,1.4
2022-12-03T06:33:52.532Z,2
2022-12-03T06:35:56.533Z,2.6
2022-12-03T06:37:52.964Z,3.3
2022-12-03T06:39:53.093Z,5
2022-12-03T06:41:56.472Z,5.5
2022-12-03T06:43:53.003Z,6.4
2022-12-03T06:45:56.369Z,7.8
2022-12-03T06:47:52.847Z,8.2
2022-12-03T06:49:53.008Z,11
2022-12-03T06:51:52.471Z,13.5
2022-12-03T06:53:53.176Z,13.5
2022-12-03T06:55:53.172Z,15.6
2022-12-03T06:57:53.260Z,18.2
2022-12-03T06:59:55.971Z,20.1
2022-12-03T07:01:53.417Z,23.3
2022-12-03T07:03:53.064Z,27.1
2022-12-03T07:05:52.527Z,30
2022-12-03T07:09:57.544Z,36.6
2022-12-03T07:12:03.810Z,40.4
2022-12-03T07:14:01.524Z,49.4
2022-12-03T07:16:01.113Z,57.4
2022-12-03T07:17:57.484Z,70.1
2022-12-03T07:19:57.054Z,60.3
2022-12-03T07:21:57.616Z,81.5
2022-12-03T07:23:56.986Z,90
2022-12-03T07:25:57.092Z,90
2022-12-03T07:27:57.689Z,104.6
2022-12-03T07:29:59.175Z,115.6
2022-12-03T07:31:57.831Z,121.5
2022-12-03T07:33:57.128Z,115.6
2022-12-03T07:35:57.731Z,127.7
2022-12-03T07:38:01.311Z,134.3
2022-12-03T07:39:57.611Z,141.2
2022-12-03T07:41:57.642Z,148.4
2022-12-03T07:44:00.666Z,164
2022-12-03T07:46:00.693Z,141.2
2022-12-03T07:47:57.673Z,134.3
2022-12-03T07:50:07.897Z,164
2022-12-03T07:51:56.897Z,164
2022-12-03T07:53:56.918Z,172.4
2022-12-03T07:56:04.260Z,172.4
2022-12-03T07:58:04.146Z,181.3
2022-12-03T07:59:57.451Z,181.3
2022-12-03T08:01:57.710Z,190.6
2022-12-03T08:03:56.977Z,210.6
2022-12-03T08:05:56.913Z,221.4
2022-12-03T08:07:57.026Z,232.8
2022-12-03T08:09:57.575Z,232.8
2022-12-03T08:11:57.088Z,232.8
2022-12-03T08:13:57.876Z,270.4
2022-12-03T08:15:57.065Z,244.7
2022-12-03T08:17:59.780Z,257.2
2022-12-03T08:19:56.722Z,257.2
2022-12-03T08:22:04.064Z,270.4
2022-12-03T08:23:57.014Z,270.4
2022-12-03T08:25:57.079Z,270.4
2022-12-03T08:27:57.864Z,284.3
2022-12-03T08:29:57.010Z,314.2
2022-12-03T08:31:57.838Z,298.9
2022-12-03T08:33:57.684Z,330.3
2022-12-03T08:35:56.889Z,347.2
2022-12-03T08:37:57.454Z,347.2
2022-12-03T08:39:56.928Z,445.9
2022-12-03T08:41:57.609Z,468.7
2022-12-03T08:44:01.039Z,403.4
2022-12-03T08:45:57.820Z,383.8
2022-12-03T08:48:00.973Z,445.9
2022-12-03T08:49:57.470Z,468.7
2022-12-03T08:51:57.757Z,492.7
2022-12-03T08:54:01.458Z,403.4
2022-12-03T08:56:06.570Z,347.2
2022-12-03T08:58:04.294Z,424.1
2022-12-03T08:59:57.478Z,518
2022-12-03T09:01:57.091Z,601.8
2022-12-03T09:03:58.475Z,572.5
2022-12-03T09:06:00.976Z,665.1
2022-12-03T09:08:04.283Z,735.1
2022-12-03T09:10:04.151Z,699.2
2022-12-03T09:11:56.920Z,544.6
2022-12-03T09:13:57.885Z,518
2022-12-03T09:15:57.517Z,601.8
2022-12-03T09:17:57.064Z,544.6
2022-12-03T09:19:57.719Z,518
2022-12-03T09:22:04.254Z,572.5
2022-12-03T09:23:57.038Z,665.1
2022-12-03T09:25:57.018Z,735.1
2022-12-03T09:27:57.097Z,699.2
2022-12-03T09:29:57.809Z,699.2
2022-12-03T09:32:01.016Z,772.8
2022-12-03T09:33:57.374Z,699.2
2022-12-03T09:35:57.077Z,735.1
2022-12-03T09:37:56.953Z,699.2
2022-12-03T09:39:57.601Z,632.7
2022-12-03T09:41:58.044Z,601.8
2022-12-03T09:44:05.083Z,699.2
2022-12-03T09:46:04.030Z,632.7
2022-12-03T09:47:57.059Z,665.1
2022-12-03T09:51:57.696Z,699.2
2022-12-03T09:53:57.602Z,601.8
2022-12-03T09:55:57.209Z,699.2
2022-12-03T09:58:04.263Z,665.1
2022-12-03T09:59:57.588Z,632.7
2022-12-03T10:02:01.991Z,632.7
2022-12-03T10:04:00.791Z,632.7
2022-12-03T10:05:57.569Z,665.1
2022-12-03T10:07:57.067Z,632.7
2022-12-03T10:09:57.705Z,632.7
2022-12-03T10:12:01.151Z,601.8
2022-12-03T10:13:57.027Z,632.7
2022-12-03T10:15:57.022Z,665.1
2022-12-03T10:17:57.220Z,632.7
2022-12-03T10:20:04.431Z,665.1
2022-12-03T10:22:01.039Z,699.2
2022-12-03T10:24:00.242Z,665.1
2022-12-03T10:25:57.067Z,699.2
2022-12-03T10:27:57.168Z,699.2
2022-12-03T10:30:01.023Z,699.2
2022-12-03T10:31:57.070Z,665.1
2022-12-03T10:34:00.247Z,699.2
2022-12-03T10:35:57.205Z,699.2
2022-12-03T10:37:57.784Z,735.1
2022-12-03T10:39:57.698Z,854.1
2022-12-03T10:42:01.168Z,897.8
2022-12-03T10:44:04.184Z,772.8
2022-12-03T10:46:03.706Z,812.4
2022-12-03T10:47:57.071Z,735.1
2022-12-03T10:50:01.184Z,735.1
2022-12-03T10:51:57.017Z,772.8
2022-12-03T10:53:57.556Z,735.1
2022-12-03T10:55:57.886Z,699.2
2022-12-03T10:57:57.601Z,632.7
2022-12-03T10:59:57.146Z,665.1
2022-12-03T11:02:01.302Z,572.5
2022-12-03T11:04:01.070Z,601.8
2022-12-03T11:05:57.043Z,544.6
2022-12-03T11:07:57.208Z,492.7
2022-12-03T11:09:57.009Z,518
2022-12-03T11:11:57.579Z,492.7
2022-12-03T11:14:01.111Z,445.9
2022-12-03T11:15:56.957Z,468.7
2022-12-03T11:17:56.933Z,492.7
2022-12-03T11:19:56.996Z,518
2022-12-03T11:21:57.052Z,572.5
2022-12-03T11:23:57.737Z,544.6
2022-12-03T11:25:57.863Z,544.6
2022-12-03T11:27:57.544Z,544.6
2022-12-03T11:29:57.007Z,544.6
2022-12-03T11:31:57.900Z,544.6
2022-12-03T11:33:56.931Z,544.6
2022-12-03T11:35:57.551Z,572.5
2022-12-03T11:38:00.724Z,572.5
2022-12-03T11:39:57.315Z,632.7
2022-12-03T11:41:57.347Z,601.8
2022-12-03T11:44:00.931Z,699.2
2022-12-03T11:46:04.337Z,772.8
2022-12-03T11:49:57.009Z,897.8
2022-12-03T11:51:57.265Z,601.8
2022-12-03T11:54:00.986Z,601.8
2022-12-03T11:56:04.310Z,812.4
2022-12-03T11:57:57.489Z,601.8
2022-12-03T12:00:04.462Z,812.4
2022-12-03T12:01:56.774Z,854.1
2022-12-03T12:03:57.080Z,854.1
2022-12-03T12:05:57.205Z,812.4
2022-12-03T12:07:57.666Z,812.4
2022-12-03T12:09:57.375Z,735.1
2022-12-03T12:11:57.084Z,665.1
2022-12-03T12:13:56.973Z,665.1
2022-12-03T12:15:57.015Z,601.8
2022-12-03T12:17:57.008Z,572.5
2022-12-03T12:19:58.009Z,665.1
2022-12-03T12:21:57.789Z,665.1
2022-12-03T12:23:56.985Z,632.7
2022-12-03T12:25:57.586Z,735.1
2022-12-03T12:27:57.694Z,735.1
2022-12-03T12:29:57.714Z,665.1
2022-12-03T12:31:57.801Z,665.1
2022-12-03T12:34:04.208Z,665.1
2022-12-03T12:35:57.450Z,699.2
2022-12-03T12:37:59.905Z,699.2
2022-12-03T12:39:57.156Z,665.1
2022-12-03T12:41:57.660Z,632.7
2022-12-03T12:43:57.328Z,632.7
2022-12-03T12:45:57.923Z,572.5
2022-12-03T12:47:56.297Z,572.5
2022-12-03T12:50:01.007Z,601.8
2022-12-03T12:51:57.505Z,572.5
2022-12-03T12:53:57.668Z,544.6
2022-12-03T12:55:57.525Z,492.7
2022-12-03T12:57:57.024Z,544.6
2022-12-03T13:00:01.176Z,518
2022-12-03T13:01:57.623Z,492.7
2022-12-03T13:03:57.031Z,468.7
2022-12-03T13:05:57.705Z,445.9
2022-12-03T13:07:57.043Z,445.9
2022-12-03T13:09:57.824Z,424.1
2022-12-03T13:11:57.076Z,424.1
2022-12-03T13:13:57.678Z,468.7
2022-12-03T13:15:57.245Z,445.9
2022-12-03T13:17:57.337Z,424.1
2022-12-03T13:20:05.349Z,424.1
2022-12-03T13:23:57.525Z,403.4
2022-12-03T13:26:01.920Z,383.8
2022-12-03T13:28:01.067Z,403.4
2022-12-03T13:31:57.205Z,403.4
2022-12-03T13:33:57.688Z,403.4
2022-12-03T13:35:56.854Z,365
2022-12-03T13:37:57.767Z,383.8
2022-12-03T13:40:01.068Z,347.2
2022-12-03T13:42:00.835Z,365
2022-12-03T13:43:57.522Z,347.2
2022-12-03T13:45:57.280Z,365
2022-12-03T13:48:00.800Z,330.3
2022-12-03T13:49:57.542Z,314.2
2022-12-03T13:52:04.212Z,298.9
2022-12-03T13:53:57.582Z,298.9
2022-12-03T13:56:00.967Z,284.3
2022-12-03T13:57:57.037Z,270.4
2022-12-03T14:00:00.118Z,270.4
2022-12-03T14:02:01.148Z,298.9
2022-12-03T14:03:57.493Z,298.9
2022-12-03T14:06:00.731Z,298.9
2022-12-03T14:07:57.124Z,257.2
2022-12-03T14:09:57.493Z,270.4
2022-12-03T14:12:01.199Z,257.2
2022-12-03T14:14:01.792Z,244.7
2022-12-03T14:15:57.031Z,221.4
2022-12-03T14:18:00.229Z,221.4
2022-12-03T14:20:01.171Z,190.6
2022-12-03T14:21:57.238Z,181.3
2022-12-03T14:24:03.890Z,156
2022-12-03T14:25:57.618Z,115.6
2022-12-03T14:29:57.291Z,115.6
2022-12-03T14:31:57.175Z,121.5
2022-12-03T14:34:00.954Z,115.6
2022-12-03T14:35:57.469Z,104.6
2022-12-03T14:37:57.728Z,121.5
2022-12-03T14:40:00.130Z,104.6
2022-12-03T14:41:57.514Z,85.6
2022-12-03T14:43:57.236Z,81.5
2022-12-03T14:45:57.699Z,77.5
2022-12-03T14:47:57.550Z,73.7
2022-12-03T14:50:00.665Z,70.1
2022-12-03T14:51:56.715Z,63.4
2022-12-03T14:53:57.701Z,57.4
2022-12-03T14:55:57.248Z,49.4
2022-12-03T14:57:57.625Z,44.7
2022-12-03T14:59:57.379Z,40.4
2022-12-03T15:01:57.630Z,38.5
2022-12-03T15:04:00.149Z,33.1
2022-12-03T15:05:57.505Z,31.5
2022-12-03T15:07:58.121Z,28.5
2022-12-03T15:09:58.021Z,24.5
2022-12-03T15:11:57.892Z,23.3
2022-12-03T15:14:00.999Z,21.1
2022-12-03T15:15:56.964Z,18.2
2022-12-03T15:18:01.078Z,16.4
2022-12-03T15:20:00.436Z,15.6
2022-12-03T15:21:57.749Z,12.2
2022-12-03T15:23:56.960Z,10
2022-12-03T15:26:01.149Z,8.6
2022-12-03T15:27:57.191Z,7
2022-12-03T15:30:01.070Z,5.8
2022-12-03T15:31:57.936Z,4.7
2022-12-03T15:33:57.232Z,3.7
2022-12-03T15:35:57.689Z,2.9
2022-12-03T15:37:57.728Z,2.1
2022-12-03T15:39:58.032Z,1.7
2022-12-03T15:42:04.104Z,1.3
2022-12-03T15:44:00.913Z,0.9
2022-12-03T15:45:57.164Z,0.7
2022-12-03T15:47:57.067Z,0.5
2022-12-03T15:50:01.021Z,0.4
2022-12-03T15:51:57.910Z,0.3
2022-12-03T15:53:57.617Z,0.2
2022-12-03T15:55:57.627Z,0.1
2022-12-03T15:57:57.481Z,0.1
2022-12-03T16:00:01.173Z,0
2022-12-03T16:01:57.138Z,0
2022-12-03T16:03:56.976Z,0
2022-12-03T16:05:57.895Z,0
2022-12-03T16:08:01.250Z,0
2022-12-03T16:09:57.649Z,0
2022-12-03T16:11:57.146Z,1
2022-12-03T16:14:01.206Z,1
2022-12-03T16:16:01.156Z,1
2022-12-03T16:17:57.676Z,1
2022-12-03T16:19:57.887Z,1
2022-12-03T16:22:01.306Z,1
2022-12-03T16:23:57.642Z,1
2022-12-03T16:25:58.119Z,1
2022-12-03T16:28:04.215Z,1
2022-12-03T16:29:57.292Z,1
2022-12-03T16:31:57.462Z,1
2022-12-03T16:33:57.506Z,1
2022-12-03T16:35:56.972Z,1
2022-12-03T16:38:01.200Z,1
2022-12-03T16:39:57.154Z,1
2022-12-03T16:42:04.292Z,1
2022-12-03T16:43:57.209Z,1
2022-12-03T16:45:57.890Z,1
2022-12-03T16:48:01.133Z,1
2022-12-03T16:49:57.693Z,1
2022-12-03T16:51:56.997Z,1
2022-12-03T16:53:57.237Z,1
2022-12-03T16:55:57.566Z,1
2022-12-03T16:57:57.240Z,1
2022-12-03T16:59:57.699Z,1
2022-12-03T17:01:58.041Z,1
2022-12-03T17:03:57.159Z,1
2022-12-03T17:05:57.304Z,1
2022-12-03T17:07:57.172Z,1
2022-12-03T17:09:57.874Z,1
2022-12-03T17:11:57.427Z,1
2022-12-03T17:13:58.070Z,1
2022-12-03T17:16:04.569Z,1
2022-12-03T17:17:56.970Z,1
2022-12-03T17:19:57.531Z,1
2022-12-03T17:22:03.777Z,1
2022-12-03T17:23:57.087Z,1
2022-12-03T17:26:01.209Z,1
2022-12-03T17:27:57.565Z,1
2022-12-03T17:29:57.560Z,1
2022-12-03T17:31:57.231Z,1
2022-12-03T17:33:59.498Z,1
2022-12-03T17:35:57.637Z,1
2022-12-03T17:37:57.744Z,1
2022-12-03T17:39:57.699Z,1
2022-12-03T17:42:01.325Z,1
2022-12-03T17:43:57.150Z,1
2022-12-03T17:45:57.354Z,1
2022-12-03T17:48:01.031Z,1
2022-12-03T17:49:57.877Z,1
2022-12-03T17:54:49.276Z,1
2022-12-03T17:59:11.650Z,1
2022-12-03T18:01:11.129Z,1
2022-12-03T18:03:10.740Z,1
2022-12-03T18:05:18.170Z,1
2022-12-03T18:07:10.690Z,1
2022-12-03T18:09:11.868Z,1
2022-12-03T18:11:11.307Z,1
2022-12-03T18:13:11.276Z,1
2022-12-03T18:15:11.833Z,1
2022-12-03T18:17:17.858Z,1
2022-12-03T18:19:10.743Z,1
2022-12-03T18:21:12.531Z,1
2022-12-03T18:23:17.817Z,1
2022-12-03T18:25:10.837Z,0
2022-12-03T18:27:12.574Z,1
2022-12-03T18:29:11.283Z,0
2022-12-03T18:31:10.815Z,1
2022-12-03T18:33:10.669Z,1
2022-12-03T18:35:10.779Z,1
2022-12-03T18:37:10.696Z,1
2022-12-03T18:39:11.664Z,1
2022-12-03T18:41:11.375Z,1
2022-12-03T18:43:11.300Z,1
2022-12-03T18:45:11.567Z,1
2022-12-03T18:47:10.923Z,1
2022-12-03T18:49:11.140Z,1
2022-12-03T18:51:14.687Z,1
2022-12-03T18:53:17.839Z,1
2022-12-03T18:55:11.807Z,1
2022-12-03T18:57:11.575Z,0
2022-12-03T18:59:14.549Z,1
2022-12-03T19:01:12.027Z,1
2022-12-03T19:03:10.839Z,1
2022-12-03T19:05:11.676Z,1
2022-12-03T19:07:10.814Z,1
2022-12-03T19:09:17.697Z,1
2022-12-03T19:11:10.817Z,1
2022-12-03T19:13:11.558Z,1
2022-12-03T19:15:14.718Z,1
2022-12-03T19:17:17.905Z,1
2022-12-03T19:19:19.064Z,1
2022-12-03T19:21:13.920Z,1
2022-12-03T19:23:10.655Z,1
2022-12-03T19:25:14.756Z,1
2022-12-03T19:27:11.539Z,1
2022-12-03T19:29:11.104Z,1
2022-12-03T19:31:11.847Z,1
2022-12-03T19:33:17.982Z,1
2022-12-03T19:35:10.613Z,1
2022-12-03T19:37:14.756Z,1
2022-12-03T19:39:11.633Z,1
2022-12-03T19:41:11.322Z,1
2022-12-03T19:43:10.977Z,1
2022-12-03T19:45:10.954Z,1
2022-12-03T19:47:14.785Z,1
2022-12-03T19:49:11.241Z,1
2022-12-03T19:51:33.370Z,1
2022-12-03T19:53:11.305Z,1
2022-12-03T19:55:13.569Z,1
2022-12-03T19:57:18.148Z,1
2022-12-03T19:59:10.594Z,1
2022-12-03T20:01:10.892Z,1
2022-12-03T20:03:11.208Z,0
2022-12-03T20:05:14.840Z,0
2022-12-03T20:07:10.831Z,1
2022-12-03T20:09:11.350Z,1
2022-12-03T20:13:11.650Z,1
2022-12-03T20:15:14.533Z,1
2022-12-03T20:17:11.382Z,1
2022-12-03T20:19:11.546Z,1
2022-12-03T20:21:14.732Z,1
2022-12-03T20:23:11.625Z,1
2022-12-03T20:25:11.688Z,1
2022-12-03T20:29:14.629Z,1
2022-12-03T20:31:10.772Z,1
2022-12-03T20:33:14.740Z,1
2022-12-03T20:35:10.728Z,1
2022-12-03T20:37:11.304Z,1
2022-12-03T20:39:10.737Z,1
2022-12-03T20:43:14.837Z,1
2022-12-03T20:45:11.702Z,1
2022-12-03T20:47:17.578Z,1
2022-12-03T20:49:11.223Z,1
2022-12-03T20:51:17.946Z,1
2022-12-03T20:53:24.049Z,0
2022-12-03T20:55:11.615Z,1
2022-12-03T20:57:14.210Z,1
2022-12-03T20:59:11.318Z,1
2022-12-03T21:01:15.543Z,1
2022-12-03T21:03:11.432Z,1
2022-12-03T21:05:10.773Z,1
2022-12-03T21:07:11.458Z,1
2022-12-03T21:09:11.060Z,1
2022-12-03T21:11:11.180Z,1
2022-12-03T21:13:14.757Z,1
2022-12-03T21:15:11.333Z,1
2022-12-03T21:17:12.829Z,1
2022-12-03T21:19:11.302Z,1
2022-12-03T21:21:11.169Z,1
2022-12-03T21:23:11.341Z,1
2022-12-03T21:25:11.535Z,1
2022-12-03T21:27:12.263Z,1
2022-12-03T21:29:16.617Z,1
2022-12-03T21:31:10.725Z,1
2022-12-03T21:33:14.839Z,1
2022-12-03T21:35:11.266Z,1
2022-12-03T21:37:11.344Z,1
2022-12-03T21:39:11.749Z,1
2022-12-03T21:41:11.399Z,1
2022-12-03T21:43:11.667Z,1
2022-12-03T21:45:11.266Z,1
2022-12-03T21:47:14.102Z,1
2022-12-03T21:49:11.386Z,1
2022-12-03T21:51:10.803Z,1
2022-12-03T21:53:17.915Z,1
2022-12-03T21:55:11.247Z,1
2022-12-03T21:57:11.482Z,1
2022-12-03T21:59:11.627Z,1
2022-12-03T22:01:11.272Z,1
2022-12-03T22:03:11.421Z,1
2022-12-03T22:05:11.289Z,1
2022-12-03T22:07:11.371Z,1
2022-12-03T22:09:11.459Z,1
2022-12-03T22:11:11.173Z,1
2022-12-03T22:13:11.255Z,1
2022-12-03T22:15:20.376Z,1
2022-12-03T22:17:14.386Z,1
2022-12-03T22:19:11.542Z,1
2022-12-03T22:21:11.332Z,1
2022-12-03T22:25:10.959Z,1
2022-12-03T22:27:11.419Z,1
2022-12-03T22:29:10.776Z,1
2022-12-03T22:31:11.509Z,1
2022-12-03T22:33:11.173Z,1
2022-12-03T22:35:11.699Z,1
2022-12-03T22:37:14.585Z,1
2022-12-03T22:39:14.771Z,1
2022-12-03T22:41:11.398Z,1
2022-12-03T22:43:10.834Z,1
2022-12-03T22:45:19.634Z,1
2022-12-03T22:47:11.708Z,1
2022-12-03T22:49:11.314Z,1
2022-12-03T22:51:11.255Z,1
2022-12-03T22:53:11.014Z,1
2022-12-03T22:55:11.256Z,1
2022-12-03T22:57:17.506Z,1
2022-12-03T22:59:11.255Z,1
2022-12-03T23:01:11.177Z,1
2022-12-03T23:03:14.815Z,1
2022-12-03T23:07:10.677Z,1
2022-12-03T23:09:11.549Z,1
2022-12-03T23:11:11.297Z,1
2022-12-03T23:13:14.486Z,1
2022-12-03T23:15:10.718Z,1
2022-12-03T23:17:11.186Z,1
2022-12-03T23:19:17.958Z,1
2022-12-03T23:21:14.458Z,1
2022-12-03T23:23:14.791Z,1
2022-12-03T23:25:11.768Z,1
2022-12-03T23:27:11.343Z,1
2022-12-03T23:29:11.466Z,1
2022-12-03T23:31:18.057Z,1
2022-12-03T23:33:10.689Z,1
2022-12-03T23:35:17.803Z,1
2022-12-03T23:39:14.756Z,1
2022-12-03T23:41:11.400Z,1
2022-12-03T23:43:10.744Z,1
2022-12-03T23:45:10.809Z,1
2022-12-03T23:47:10.716Z,1
2022-12-03T23:49:11.464Z,1
2022-12-03T23:51:11.343Z,1
2022-12-03T23:53:11.492Z,1
2022-12-03T23:55:14.812Z,1
2022-12-03T23:57:11.541Z,1
2022-12-03T23:59:14.711Z,1
